createdAt,value
2023-05-14T00:02:19.671Z,10.59
2023-05-14T00:05:22.721Z,10.59
2023-05-14T00:08:25.493Z,10.65
2023-05-14T00:11:28.093Z,10.67
2023-05-14T00:14:32.999Z,10.62
2023-05-14T00:17:35.670Z,10.55
2023-05-14T00:20:38.383Z,10.56
2023-05-14T00:23:40.999Z,10.56
2023-05-14T00:26:43.634Z,10.63
2023-05-14T00:29:46.170Z,10.62
2023-05-14T00:32:48.774Z,10.62
2023-05-14T00:35:51.784Z,10.57
2023-05-14T00:38:54.372Z,10.58
2023-05-14T00:41:57.002Z,10.58
2023-05-14T00:44:59.556Z,10.64
2023-05-14T00:48:02.272Z,10.61
2023-05-14T00:51:05.256Z,10.54
2023-05-14T00:54:08.408Z,10.56
2023-05-14T00:57:11.036Z,10.54
2023-05-14T01:00:14.101Z,10.57
2023-05-14T01:03:19.582Z,10.57
2023-05-14T01:06:48.595Z,10.51
2023-05-14T01:10:13.905Z,10.49
2023-05-14T01:13:30.297Z,10.48
2023-05-14T01:16:34.338Z,10.49
2023-05-14T01:19:43.928Z,10.48
2023-05-14T01:22:47.566Z,10.47
2023-05-14T01:25:53.233Z,10.50
2023-05-14T01:28:56.401Z,10.40
2023-05-14T01:32:03.527Z,10.45
2023-05-14T01:35:08.150Z,10.39
2023-05-14T01:38:12.554Z,10.45
2023-05-14T01:41:16.013Z,10.48
2023-05-14T01:44:18.873Z,10.44
2023-05-14T01:47:21.540Z,10.43
2023-05-14T01:50:24.699Z,10.46
2023-05-14T01:53:27.471Z,10.47
2023-05-14T01:56:30.081Z,10.47
2023-05-14T01:59:32.848Z,10.43
2023-05-14T02:02:35.711Z,10.43
2023-05-14T02:05:38.361Z,10.41
2023-05-14T02:08:40.976Z,10.37
2023-05-14T02:11:48.490Z,10.40
2023-05-14T02:14:51.257Z,10.38
2023-05-14T02:17:56.656Z,10.42
2023-05-14T02:20:59.428Z,10.39
2023-05-14T02:24:02.085Z,10.45
2023-05-14T02:27:05.162Z,10.36
2023-05-14T02:30:11.851Z,10.45
2023-05-14T02:33:15.236Z,10.46
2023-05-14T02:36:18.043Z,10.49
2023-05-14T02:39:20.645Z,10.46
2023-05-14T02:42:23.197Z,10.49
2023-05-14T02:45:26.044Z,10.43
2023-05-14T02:48:31.480Z,10.28
2023-05-14T02:51:37.009Z,10.41
2023-05-14T02:54:39.728Z,10.43
2023-05-14T02:57:42.349Z,10.30
2023-05-14T03:00:45.193Z,10.41
2023-05-14T03:03:50.807Z,10.46
2023-05-14T03:06:53.888Z,10.44
2023-05-14T03:09:56.572Z,10.45
2023-05-14T03:12:59.285Z,10.45
2023-05-14T03:16:01.842Z,10.49
2023-05-14T03:19:05.475Z,10.47
2023-05-14T03:22:08.101Z,10.51
2023-05-14T03:25:10.744Z,10.46
2023-05-14T03:28:15.829Z,10.45
2023-05-14T03:31:19.122Z,10.47
2023-05-14T03:34:22.124Z,10.26
2023-05-14T03:37:24.635Z,10.40
2023-05-14T03:40:27.205Z,10.37
2023-05-14T03:43:29.823Z,10.37
2023-05-14T03:46:35.968Z,10.42
2023-05-14T03:49:40.777Z,10.42
2023-05-14T03:52:46.142Z,10.38
2023-05-14T03:55:48.712Z,10.38
2023-05-14T03:58:53.268Z,10.38
2023-05-14T04:01:55.941Z,10.39
2023-05-14T04:04:58.596Z,10.45
2023-05-14T04:08:01.757Z,10.46
2023-05-14T04:11:04.962Z,10.46
2023-05-14T04:14:10.186Z,10.51
2023-05-14T04:17:14.857Z,10.53
2023-05-14T04:20:17.912Z,10.52
2023-05-14T04:23:23.095Z,10.53
2023-05-14T04:26:25.801Z,10.50
2023-05-14T04:29:29.060Z,10.53
2023-05-14T04:32:31.791Z,10.58
2023-05-14T04:35:34.356Z,10.60
2023-05-14T04:38:36.900Z,10.63
2023-05-14T04:41:39.514Z,10.61
2023-05-14T04:44:42.099Z,10.62
2023-05-14T04:47:45.204Z,10.63
2023-05-14T04:50:48.045Z,10.65
2023-05-14T04:53:50.749Z,10.58
2023-05-14T04:56:55.222Z,10.64
2023-05-14T04:59:57.804Z,10.60
2023-05-14T05:03:00.626Z,10.56
2023-05-14T05:06:03.587Z,10.56
2023-05-14T05:09:06.141Z,10.58
2023-05-14T05:12:09.150Z,10.51
2023-05-14T05:15:11.864Z,10.61
2023-05-14T05:18:14.538Z,10.66
2023-05-14T05:21:17.144Z,10.66
2023-05-14T05:24:19.706Z,10.64
2023-05-14T05:27:22.777Z,10.62
2023-05-14T05:30:25.514Z,10.72
2023-05-14T05:33:28.444Z,10.67
2023-05-14T05:36:31.786Z,10.65
2023-05-14T05:39:35.209Z,10.59
2023-05-14T05:42:37.993Z,10.64
2023-05-14T05:45:41.039Z,10.60
2023-05-14T05:48:43.625Z,10.53
2023-05-14T05:51:46.270Z,10.57
2023-05-14T05:54:48.917Z,10.55
2023-05-14T05:57:51.706Z,10.64
2023-05-14T06:00:55.176Z,10.57
2023-05-14T06:03:57.774Z,10.60
2023-05-14T06:07:00.449Z,10.52
2023-05-14T06:10:03.614Z,10.51
2023-05-14T06:13:06.968Z,10.48
2023-05-14T06:16:10.140Z,10.47
2023-05-14T06:19:12.944Z,10.51
2023-05-14T06:22:15.668Z,10.52
2023-05-14T06:25:18.611Z,10.48
2023-05-14T06:28:21.162Z,10.49
2023-05-14T06:31:23.836Z,10.51
2023-05-14T06:34:26.460Z,10.45
2023-05-14T06:37:29.072Z,10.47
2023-05-14T06:40:32.083Z,10.48
2023-05-14T06:43:34.740Z,10.41
2023-05-14T06:46:37.417Z,10.54
2023-05-14T06:49:40.040Z,10.67
2023-05-14T06:52:44.044Z,10.70
2023-05-14T06:55:48.317Z,10.77
2023-05-14T06:58:51.246Z,10.84
2023-05-14T07:01:53.862Z,10.90
2023-05-14T07:04:56.485Z,10.84
2023-05-14T07:07:59.105Z,10.79
2023-05-14T07:11:01.865Z,10.70
2023-05-14T07:14:04.522Z,10.70
2023-05-14T07:17:07.252Z,10.74
2023-05-14T07:20:10.402Z,10.76
2023-05-14T07:23:13.055Z,10.77
2023-05-14T07:26:15.731Z,10.80
2023-05-14T07:29:18.347Z,10.86
2023-05-14T07:32:21.040Z,10.85
2023-05-14T07:35:23.735Z,10.96
2023-05-14T07:38:26.419Z,11.05
2023-05-14T07:41:29.112Z,11.08
2023-05-14T07:44:31.816Z,11.02
2023-05-14T07:47:34.620Z,11.12
2023-05-14T07:50:38.157Z,11.32
2023-05-14T07:53:41.317Z,11.39
2023-05-14T07:56:45.208Z,11.38
2023-05-14T07:59:48.600Z,11.35
2023-05-14T08:02:51.994Z,11.37
2023-05-14T08:05:54.650Z,11.47
2023-05-14T08:08:57.206Z,11.52
2023-05-14T08:11:59.974Z,11.31
2023-05-14T08:15:02.956Z,11.39
2023-05-14T08:18:05.715Z,11.40
2023-05-14T08:21:08.334Z,11.42
2023-05-14T08:24:11.526Z,11.52
2023-05-14T08:27:14.217Z,11.67
2023-05-14T08:30:17.976Z,11.50
2023-05-14T08:33:20.727Z,11.36
2023-05-14T08:36:23.336Z,11.30
2023-05-14T08:39:26.051Z,11.28
2023-05-14T08:42:29.239Z,11.25
2023-05-14T08:45:34.321Z,11.24
2023-05-14T08:48:38.034Z,11.20
2023-05-14T08:51:41.179Z,11.09
2023-05-14T08:54:44.836Z,11.14
2023-05-14T08:57:50.478Z,11.25
2023-05-14T09:00:54.272Z,11.30
2023-05-14T09:03:57.219Z,11.40
2023-05-14T09:07:01.585Z,11.35
2023-05-14T09:10:04.914Z,11.26
2023-05-14T09:13:07.810Z,11.16
2023-05-14T09:16:10.611Z,11.15
2023-05-14T09:19:14.043Z,11.12
2023-05-14T09:22:19.867Z,11.04
2023-05-14T09:25:27.720Z,11.05
2023-05-14T09:28:31.039Z,11.08
2023-05-14T09:31:33.937Z,11.17
2023-05-14T09:34:39.267Z,11.25
2023-05-14T09:37:43.913Z,11.21
2023-05-14T09:40:46.680Z,11.26
2023-05-14T09:43:50.707Z,11.27
2023-05-14T09:46:54.637Z,11.31
2023-05-14T09:49:57.361Z,11.32
2023-05-14T09:53:00.237Z,11.40
2023-05-14T09:56:02.887Z,11.35
2023-05-14T09:59:06.083Z,11.28
2023-05-14T10:02:16.287Z,11.28
2023-05-14T10:05:20.668Z,11.24
2023-05-14T10:08:39.184Z,11.29
2023-05-14T10:11:47.187Z,11.37
2023-05-14T10:14:53.789Z,11.41
2023-05-14T10:17:59.055Z,11.35
2023-05-14T10:21:06.456Z,11.36
2023-05-14T10:24:10.038Z,11.36
2023-05-14T10:27:12.758Z,11.36
2023-05-14T10:30:18.626Z,11.31
2023-05-14T10:33:21.409Z,11.29
2023-05-14T10:36:24.055Z,11.27
2023-05-14T10:39:47.614Z,11.28
2023-05-14T10:42:50.165Z,11.23
2023-05-14T10:45:52.761Z,11.26
2023-05-14T10:48:56.838Z,11.25
2023-05-14T10:51:59.476Z,11.21
2023-05-14T10:55:04.085Z,11.27
2023-05-14T10:58:07.866Z,11.30
2023-05-14T11:01:12.226Z,11.22
2023-05-14T11:04:24.759Z,11.16
2023-05-14T11:07:32.908Z,11.21
2023-05-14T11:10:35.759Z,11.15
2023-05-14T11:13:38.586Z,11.24
2023-05-14T11:16:41.561Z,11.27
2023-05-14T11:19:48.851Z,11.27
2023-05-14T11:22:53.037Z,11.17
2023-05-14T11:25:56.889Z,11.25
2023-05-14T11:29:00.210Z,11.32
2023-05-14T11:32:06.043Z,11.30
2023-05-14T11:35:09.012Z,11.33
2023-05-14T11:38:16.831Z,11.34
2023-05-14T11:41:21.683Z,11.39
2023-05-14T11:44:24.572Z,11.33
2023-05-14T11:47:29.589Z,11.16
2023-05-14T11:50:36.769Z,11.19
2023-05-14T11:53:39.410Z,11.30
2023-05-14T11:56:42.093Z,11.34
2023-05-14T11:59:44.784Z,11.36
2023-05-14T12:02:49.522Z,11.30
2023-05-14T12:05:59.610Z,11.42
2023-05-14T12:09:04.838Z,11.46
2023-05-14T12:12:12.235Z,11.46
2023-05-14T12:15:16.539Z,11.39
2023-05-14T12:18:24.564Z,11.34
2023-05-14T12:21:29.186Z,11.49
2023-05-14T12:24:31.850Z,11.45
2023-05-14T12:27:37.842Z,11.46
2023-05-14T12:30:40.547Z,11.40
2023-05-14T12:33:43.267Z,11.51
2023-05-14T12:36:45.884Z,11.51
2023-05-14T12:39:48.525Z,11.45
2023-05-14T12:42:51.140Z,11.39
2023-05-14T12:45:53.819Z,11.36
2023-05-14T12:48:57.275Z,11.39
2023-05-14T12:52:17.337Z,11.33
2023-05-14T12:55:22.454Z,11.38
2023-05-14T12:58:25.167Z,11.42
2023-05-14T13:01:27.839Z,11.47
2023-05-14T13:04:30.551Z,11.44
2023-05-14T13:07:33.341Z,11.44
2023-05-14T13:10:36.327Z,11.49
2023-05-14T13:13:39.013Z,11.55
2023-05-14T13:16:41.609Z,11.49
2023-05-14T13:19:44.146Z,11.63
2023-05-14T13:22:46.787Z,11.55
2023-05-14T13:25:50.072Z,11.58
2023-05-14T13:28:52.942Z,11.42
2023-05-14T13:31:55.546Z,11.38
2023-05-14T13:34:58.127Z,11.27
2023-05-14T13:38:00.800Z,11.20
2023-05-14T13:41:04.013Z,11.18
2023-05-14T13:44:06.571Z,11.25
2023-05-14T13:47:09.214Z,11.19
2023-05-14T13:50:11.796Z,11.34
2023-05-14T13:53:14.328Z,11.32
2023-05-14T13:56:16.982Z,11.38
2023-05-14T13:59:20.695Z,11.37
2023-05-14T14:02:23.390Z,11.34
2023-05-14T14:05:28.604Z,11.25
2023-05-14T14:08:31.456Z,11.27
2023-05-14T14:11:34.151Z,11.31
2023-05-14T14:14:36.707Z,11.51
2023-05-14T14:17:41.835Z,11.54
2023-05-14T14:20:44.647Z,11.51
2023-05-14T14:23:47.701Z,11.39
2023-05-14T14:26:50.426Z,11.52
2023-05-14T14:29:53.346Z,11.46
2023-05-14T14:32:56.065Z,11.59
2023-05-14T14:35:58.737Z,11.48
2023-05-14T14:39:01.316Z,11.40
2023-05-14T14:42:04.286Z,11.43
2023-05-14T14:45:07.755Z,11.53
2023-05-14T14:48:31.978Z,11.57
2023-05-14T14:51:34.690Z,11.59
2023-05-14T14:54:37.371Z,11.63
2023-05-14T14:57:39.959Z,11.55
2023-05-14T15:00:43.293Z,11.57
2023-05-14T15:03:48.246Z,11.58
2023-05-14T15:06:50.927Z,11.51
2023-05-14T15:09:53.574Z,11.39
2023-05-14T15:12:58.973Z,11.35
2023-05-14T15:16:01.515Z,11.37
2023-05-14T15:19:04.183Z,11.35
2023-05-14T15:22:07.042Z,11.34
2023-05-14T15:25:11.028Z,11.34
2023-05-14T15:28:13.647Z,11.34
2023-05-14T15:31:16.592Z,11.32
2023-05-14T15:34:19.157Z,11.42
2023-05-14T15:37:23.762Z,11.41
2023-05-14T15:40:27.645Z,11.44
2023-05-14T15:43:30.563Z,11.45
2023-05-14T15:46:33.414Z,11.45
2023-05-14T15:49:36.095Z,11.45
2023-05-14T15:52:39.507Z,11.45
2023-05-14T15:55:45.116Z,11.37
2023-05-14T15:58:47.773Z,11.41
2023-05-14T16:01:51.130Z,11.43
2023-05-14T16:04:53.766Z,11.42
2023-05-14T16:07:56.464Z,11.46
2023-05-14T16:11:01.587Z,11.44
2023-05-14T16:14:09.937Z,11.47
2023-05-14T16:17:13.213Z,11.45
2023-05-14T16:20:18.655Z,11.49
2023-05-14T16:23:27.463Z,11.50
2023-05-14T16:26:30.819Z,11.58
2023-05-14T16:29:36.169Z,11.60
2023-05-14T16:32:41.780Z,11.60
2023-05-14T16:35:45.510Z,11.61
2023-05-14T16:39:06.150Z,11.57
2023-05-14T16:42:10.830Z,11.61
2023-05-14T16:45:13.436Z,11.58
2023-05-14T16:48:16.020Z,11.66
2023-05-14T16:51:22.352Z,11.68
2023-05-14T16:54:28.032Z,11.71
2023-05-14T16:57:34.394Z,11.67
2023-05-14T17:00:41.427Z,11.65
2023-05-14T17:03:45.710Z,11.80
2023-05-14T17:06:48.474Z,11.77
2023-05-14T17:09:51.359Z,11.79
2023-05-14T17:12:59.439Z,11.82
2023-05-14T17:16:02.283Z,11.78
2023-05-14T17:19:05.696Z,11.87
2023-05-14T17:22:08.636Z,11.79
2023-05-14T17:25:11.222Z,11.44
2023-05-14T17:28:18.926Z,11.82
2023-05-14T17:31:22.357Z,11.81
2023-05-14T17:34:24.949Z,11.80
2023-05-14T17:37:28.819Z,11.75
2023-05-14T17:40:31.685Z,11.79
2023-05-14T17:43:37.323Z,11.79
2023-05-14T17:46:40.133Z,11.78
2023-05-14T17:49:42.718Z,11.74
2023-05-14T17:52:46.241Z,11.81
2023-05-14T17:55:50.191Z,11.76
2023-05-14T17:58:52.768Z,11.85
2023-05-14T18:01:55.487Z,11.82
2023-05-14T18:04:58.268Z,11.81
2023-05-14T18:08:01.148Z,11.83
2023-05-14T18:11:04.067Z,11.86
2023-05-14T18:14:06.704Z,11.84
2023-05-14T18:17:09.488Z,11.83
2023-05-14T18:20:12.444Z,11.82
2023-05-14T18:23:15.180Z,11.81
2023-05-14T18:26:17.977Z,11.82
2023-05-14T18:29:20.783Z,11.83
2023-05-14T18:32:23.400Z,11.81
2023-05-14T18:35:26.615Z,11.80
2023-05-14T18:38:29.459Z,11.90
2023-05-14T18:41:32.118Z,11.82
2023-05-14T18:44:34.901Z,11.84
2023-05-14T18:47:38.108Z,11.82
2023-05-14T18:50:40.904Z,11.86
2023-05-14T18:53:43.695Z,11.77
2023-05-14T18:56:47.614Z,11.84
2023-05-14T18:59:50.459Z,11.83
2023-05-14T19:02:53.137Z,11.76
2023-05-14T19:05:56.113Z,11.82
2023-05-14T19:08:59.135Z,11.88
2023-05-14T19:12:02.022Z,11.86
2023-05-14T19:15:05.685Z,11.90
2023-05-14T19:18:08.607Z,11.85
2023-05-14T19:21:11.377Z,11.90
2023-05-14T19:24:14.268Z,11.80
2023-05-14T19:27:17.574Z,11.85
2023-05-14T19:30:21.208Z,11.74
2023-05-14T19:33:23.980Z,11.89
2023-05-14T19:36:26.631Z,11.89
2023-05-14T19:39:29.335Z,11.85
2023-05-14T19:42:31.987Z,11.83
2023-05-14T19:45:39.368Z,11.82
2023-05-14T19:48:42.380Z,11.91
2023-05-14T19:51:45.108Z,11.91
2023-05-14T19:54:47.711Z,11.91
2023-05-14T19:57:50.873Z,11.91
2023-05-14T20:00:56.784Z,11.91
2023-05-14T20:03:59.553Z,11.90
2023-05-14T20:07:02.965Z,11.88
2023-05-14T20:10:05.802Z,12.04
2023-05-14T20:13:08.653Z,12.00
2023-05-14T20:16:11.866Z,11.91
2023-05-14T20:19:14.808Z,11.93
2023-05-14T20:22:17.594Z,12.06
2023-05-14T20:25:20.186Z,12.01
2023-05-14T20:28:22.927Z,11.98
2023-05-14T20:31:25.753Z,11.95
2023-05-14T20:34:28.396Z,11.87
2023-05-14T20:37:32.756Z,11.88
2023-05-14T20:40:35.489Z,11.96
2023-05-14T20:43:38.199Z,11.94
2023-05-14T20:46:41.147Z,11.81
2023-05-14T20:49:43.855Z,12.00
2023-05-14T20:52:46.606Z,12.07
2023-05-14T20:55:49.356Z,12.03
2023-05-14T20:58:52.089Z,11.98
2023-05-14T21:01:54.710Z,11.98
2023-05-14T21:04:57.364Z,11.95
2023-05-14T21:08:00.059Z,12.02
2023-05-14T21:11:02.646Z,12.00
2023-05-14T21:14:05.328Z,11.98
2023-05-14T21:17:07.976Z,11.99
2023-05-14T21:20:13.553Z,11.96
2023-05-14T21:23:16.248Z,11.93
2023-05-14T21:26:22.435Z,11.97
2023-05-14T21:29:25.320Z,11.97
2023-05-14T21:32:28.065Z,11.93
2023-05-14T21:35:30.953Z,11.93
2023-05-14T21:38:34.168Z,11.89
2023-05-14T21:41:36.778Z,11.84
2023-05-14T21:44:39.342Z,11.86
2023-05-14T21:47:42.128Z,11.85
2023-05-14T21:50:44.985Z,11.82
2023-05-14T21:53:48.571Z,11.83
2023-05-14T21:56:51.261Z,11.79
2023-05-14T21:59:54.108Z,11.76
2023-05-14T22:02:56.740Z,11.76
2023-05-14T22:05:59.329Z,11.76
2023-05-14T22:09:02.051Z,11.82
2023-05-14T22:12:05.168Z,11.73
2023-05-14T22:15:08.664Z,11.79
2023-05-14T22:18:12.869Z,11.79
2023-05-14T22:21:15.841Z,11.77
2023-05-14T22:24:18.517Z,11.83
2023-05-14T22:27:21.197Z,11.74
2023-05-14T22:30:23.941Z,11.82
2023-05-14T22:33:26.690Z,11.80
2023-05-14T22:36:29.412Z,11.78
2023-05-14T22:39:32.018Z,11.77
2023-05-14T22:42:34.562Z,11.76
2023-05-14T22:45:37.309Z,11.68
2023-05-14T22:48:40.000Z,11.72
2023-05-14T22:51:42.725Z,11.68
2023-05-14T22:54:46.735Z,11.59
2023-05-14T22:57:49.456Z,11.68
2023-05-14T23:00:52.345Z,11.70
2023-05-14T23:03:55.078Z,11.68
2023-05-14T23:06:58.305Z,11.53
2023-05-14T23:10:00.925Z,11.66
2023-05-14T23:13:04.467Z,11.63
2023-05-14T23:16:07.231Z,11.67
2023-05-14T23:19:10.166Z,11.68
2023-05-14T23:22:12.948Z,11.69
2023-05-14T23:25:15.737Z,11.71
2023-05-14T23:28:18.608Z,11.68
2023-05-14T23:31:21.546Z,11.71
2023-05-14T23:34:24.459Z,11.67
2023-05-14T23:37:27.088Z,11.71
2023-05-14T23:40:29.693Z,11.74
2023-05-14T23:43:33.885Z,11.72
2023-05-14T23:46:36.582Z,11.79
2023-05-14T23:49:40.902Z,11.83
2023-05-14T23:52:43.788Z,11.81
2023-05-14T23:55:46.428Z,11.80
2023-05-14T23:58:49.267Z,11.78
